createdAt,value
2023-02-13T00:00:51.923Z,6.22
2023-02-13T00:03:19.028Z,5.68
2023-02-13T00:05:45.935Z,5.90
2023-02-13T00:08:12.799Z,5.93
2023-02-13T00:10:40.380Z,5.60
2023-02-13T00:13:07.161Z,5.88
2023-02-13T00:15:34.371Z,5.63
2023-02-13T00:18:02.945Z,5.95
2023-02-13T00:20:29.776Z,6.35
2023-02-13T00:22:56.586Z,5.88
2023-02-13T00:25:23.352Z,5.65
2023-02-13T00:27:52.412Z,5.65
2023-02-13T00:30:19.309Z,6.07
2023-02-13T00:32:46.574Z,4.95
2023-02-13T00:35:13.417Z,5.40
2023-02-13T00:37:40.190Z,5.38
2023-02-13T00:40:08.076Z,5.55
2023-02-13T00:42:34.880Z,5.28
2023-02-13T00:45:01.640Z,5.05
2023-02-13T00:47:28.464Z,5.03
2023-02-13T00:49:55.270Z,5.28
2023-02-13T00:52:22.066Z,5.05
2023-02-13T00:54:48.913Z,4.68
2023-02-13T00:57:15.708Z,5.07
2023-02-13T00:59:42.523Z,4.75
2023-02-13T01:02:09.330Z,4.63
2023-02-13T01:04:36.164Z,4.80
2023-02-13T01:07:02.949Z,5.00
2023-02-13T01:09:29.763Z,4.90
2023-02-13T01:11:56.569Z,4.20
2023-02-13T01:14:23.454Z,4.78
2023-02-13T01:16:50.234Z,4.88
2023-02-13T01:19:17.447Z,4.90
2023-02-13T01:21:44.767Z,5.20
2023-02-13T01:24:11.924Z,5.15
2023-02-13T01:26:39.637Z,4.80
2023-02-13T01:29:06.779Z,5.40
2023-02-13T01:31:34.165Z,5.72
2023-02-13T01:34:01.181Z,4.88
2023-02-13T01:36:28.163Z,5.63
2023-02-13T01:38:58.460Z,5.18
2023-02-13T01:41:27.363Z,5.00
2023-02-13T01:43:58.911Z,5.25
2023-02-13T01:46:37.841Z,5.22
2023-02-13T01:49:33.986Z,5.55
2023-02-13T01:52:00.853Z,5.18
2023-02-13T01:54:31.489Z,5.43
2023-02-13T01:57:22.510Z,5.60
2023-02-13T02:00:08.120Z,5.30
2023-02-13T02:02:40.746Z,6.35
2023-02-13T02:05:09.322Z,6.28
2023-02-13T02:07:38.357Z,6.88
2023-02-13T02:10:10.716Z,7.05
2023-02-13T02:13:07.160Z,7.25
2023-02-13T02:15:34.202Z,7.30
2023-02-13T02:18:01.022Z,7.97
2023-02-13T02:21:09.984Z,7.60
2023-02-13T02:24:27.667Z,8.20
2023-02-13T02:27:25.976Z,8.50
2023-02-13T02:30:17.303Z,9.60
2023-02-13T02:33:26.731Z,9.00
2023-02-13T02:36:12.479Z,9.43
2023-02-13T02:39:04.093Z,10.05
2023-02-13T02:42:23.566Z,10.43
2023-02-13T02:45:39.409Z,9.30
2023-02-13T02:48:36.948Z,10.35
2023-02-13T02:51:29.764Z,10.30
2023-02-13T02:54:41.663Z,10.25
2023-02-13T02:57:16.647Z,10.60
2023-02-13T03:02:51.562Z,11.70
2023-02-13T03:05:50.931Z,11.60
2023-02-13T03:08:41.374Z,10.57
2023-02-13T03:11:28.149Z,10.80
2023-02-13T03:13:56.049Z,12.45
2023-02-13T03:16:44.403Z,11.68
2023-02-13T03:20:05.781Z,11.13
2023-02-13T03:22:57.650Z,12.98
2023-02-13T03:25:41.662Z,12.50
2023-02-13T03:29:26.335Z,13.23
2023-02-13T03:32:16.146Z,13.65
2023-02-13T03:35:18.480Z,13.38
2023-02-13T03:37:56.768Z,12.60
2023-02-13T03:41:05.343Z,12.57
2023-02-13T03:43:59.243Z,12.85
2023-02-13T03:46:31.313Z,13.80
2023-02-13T03:49:18.867Z,14.00
2023-02-13T03:51:51.811Z,14.00
2023-02-13T03:54:44.041Z,14.48
2023-02-13T03:57:37.496Z,14.75
2023-02-13T04:00:11.905Z,13.73
2023-02-13T04:02:50.341Z,14.15
2023-02-13T04:05:24.845Z,14.73
2023-02-13T04:07:51.781Z,14.55
2023-02-13T04:10:20.540Z,15.32
2023-02-13T04:13:15.373Z,14.48
2023-02-13T04:16:06.692Z,15.80
2023-02-13T04:18:34.877Z,14.40
2023-02-13T04:21:05.211Z,14.90
2023-02-13T04:23:32.179Z,15.27
2023-02-13T04:26:03.277Z,15.25
2023-02-13T04:28:30.369Z,15.98
2023-02-13T04:30:58.857Z,15.60
2023-02-13T04:33:26.014Z,15.25
2023-02-13T04:35:53.142Z,16.40
2023-02-13T04:38:19.901Z,15.73
2023-02-13T04:40:46.690Z,16.00
2023-02-13T04:43:13.611Z,15.77
2023-02-13T04:45:40.481Z,16.63
2023-02-13T04:48:07.335Z,16.83
2023-02-13T04:50:34.109Z,17.23
2023-02-13T04:53:00.899Z,16.33
2023-02-13T04:55:28.613Z,16.42
2023-02-13T04:57:56.381Z,17.92
2023-02-13T05:00:25.993Z,17.65
2023-02-13T05:02:54.070Z,17.50
2023-02-13T05:05:21.633Z,16.73
2023-02-13T05:07:48.509Z,17.70
2023-02-13T05:10:15.383Z,17.10
2023-02-13T05:12:42.175Z,16.20
2023-02-13T05:15:09.784Z,16.67
2023-02-13T05:17:36.580Z,17.85
2023-02-13T05:20:03.868Z,17.98
2023-02-13T05:22:49.291Z,17.90
2023-02-13T05:27:43.020Z,17.05
2023-02-13T05:30:10.701Z,18.50
2023-02-13T05:32:37.815Z,18.23
2023-02-13T05:35:06.027Z,18.40
2023-02-13T05:37:32.923Z,17.48
2023-02-13T05:39:59.871Z,18.25
2023-02-13T05:42:26.870Z,19.92
2023-02-13T05:44:53.641Z,20.13
2023-02-13T05:47:20.456Z,19.83
2023-02-13T05:49:47.225Z,19.65
2023-02-13T05:52:13.999Z,18.77
2023-02-13T05:54:41.215Z,18.92
2023-02-13T05:57:08.150Z,19.30
2023-02-13T05:59:34.934Z,19.48
2023-02-13T06:02:01.764Z,18.42
2023-02-13T06:04:30.454Z,18.95
2023-02-13T06:06:57.615Z,19.73
2023-02-13T06:09:24.452Z,19.65
2023-02-13T06:11:51.288Z,18.95
2023-02-13T06:14:18.077Z,19.60
2023-02-13T06:16:44.899Z,20.52
2023-02-13T06:19:11.672Z,20.27
2023-02-13T06:21:39.076Z,21.15
2023-02-13T06:24:09.711Z,20.92
2023-02-13T06:26:36.560Z,21.25
2023-02-13T06:29:05.107Z,21.10
2023-02-13T06:31:32.544Z,20.58
2023-02-13T06:33:59.409Z,20.00
2023-02-13T06:36:26.228Z,21.50
2023-02-13T06:38:53.040Z,22.63
2023-02-13T06:41:20.352Z,21.27
2023-02-13T06:43:47.180Z,21.52
2023-02-13T06:46:13.995Z,21.90
2023-02-13T06:48:40.840Z,21.70
2023-02-13T06:51:07.717Z,21.42
2023-02-13T06:53:34.526Z,21.77
2023-02-13T06:56:06.643Z,22.38
2023-02-13T06:58:34.421Z,22.80
2023-02-13T07:01:01.337Z,22.63
2023-02-13T07:03:28.526Z,21.98
2023-02-13T07:05:55.410Z,21.80
2023-02-13T07:08:22.662Z,22.70
2023-02-13T07:10:49.954Z,21.55
2023-02-13T07:13:16.858Z,22.00
2023-02-13T07:15:43.783Z,22.83
2023-02-13T07:18:10.824Z,22.45
2023-02-13T07:20:37.685Z,23.42
2023-02-13T07:23:07.041Z,21.50
2023-02-13T07:25:34.288Z,22.05
2023-02-13T07:28:03.660Z,22.15
2023-02-13T07:30:32.479Z,21.48
2023-02-13T07:33:01.720Z,23.05
2023-02-13T07:35:28.735Z,23.20
2023-02-13T07:37:56.203Z,23.40
2023-02-13T07:40:23.378Z,22.88
2023-02-13T07:42:50.190Z,24.10
2023-02-13T07:45:17.129Z,22.00
2023-02-13T07:47:44.357Z,24.63
2023-02-13T07:50:12.639Z,22.95
2023-02-13T07:52:39.541Z,22.67
2023-02-13T07:55:06.983Z,24.65
2023-02-13T07:57:34.623Z,21.67
2023-02-13T08:00:01.919Z,22.90
2023-02-13T08:02:28.854Z,23.27
2023-02-13T08:04:56.043Z,24.13
2023-02-13T08:07:22.895Z,22.45
2023-02-13T08:10:08.344Z,23.52
2023-02-13T08:12:36.728Z,23.42
2023-02-13T08:15:04.679Z,23.58
2023-02-13T08:17:31.611Z,23.45
2023-02-13T08:19:58.561Z,22.65
2023-02-13T08:22:25.781Z,23.48
2023-02-13T08:24:52.927Z,23.60
2023-02-13T08:27:20.347Z,22.42
2023-02-13T08:29:49.448Z,24.15
2023-02-13T08:32:16.581Z,23.08
2023-02-13T08:34:43.488Z,22.95
2023-02-13T08:37:10.288Z,22.88
2023-02-13T08:39:37.262Z,23.40
2023-02-13T08:42:04.208Z,25.10
2023-02-13T08:44:31.055Z,24.13
2023-02-13T08:46:58.044Z,24.05
2023-02-13T08:49:25.050Z,24.88
2023-02-13T08:51:51.820Z,23.30
2023-02-13T08:54:18.791Z,22.73
2023-02-13T08:56:45.790Z,24.58
2023-02-13T08:59:12.562Z,25.05
2023-02-13T09:01:39.526Z,22.67
2023-02-13T09:04:06.429Z,23.67
2023-02-13T09:06:33.660Z,23.52
2023-02-13T09:09:00.445Z,22.67
2023-02-13T09:11:27.265Z,22.52
2023-02-13T09:13:54.453Z,24.40
2023-02-13T09:16:21.830Z,23.48
2023-02-13T09:18:50.221Z,24.02
2023-02-13T09:21:18.406Z,23.83
2023-02-13T09:23:46.067Z,24.00
2023-02-13T09:26:16.452Z,23.63
2023-02-13T09:28:43.949Z,23.75
2023-02-13T09:31:17.733Z,23.17
2023-02-13T09:33:46.391Z,23.45
2023-02-13T09:36:16.620Z,24.50
2023-02-13T09:38:44.384Z,23.63
2023-02-13T09:41:21.566Z,23.10
2023-02-13T09:43:52.874Z,22.67
2023-02-13T09:46:40.670Z,23.30
2023-02-13T09:49:17.510Z,23.60
2023-02-13T09:51:47.455Z,24.50
2023-02-13T09:54:19.208Z,23.90
2023-02-13T09:57:00.617Z,23.60
2023-02-13T09:59:41.170Z,24.15
2023-02-13T10:02:38.774Z,22.42
2023-02-13T10:05:26.952Z,21.85
2023-02-13T10:08:08.500Z,22.75
2023-02-13T10:10:50.534Z,23.60
2023-02-13T10:13:48.455Z,22.08
2023-02-13T10:16:29.440Z,21.83
2023-02-13T10:19:06.867Z,22.38
2023-02-13T10:21:42.908Z,23.67
2023-02-13T10:24:40.427Z,23.48
2023-02-13T10:27:34.946Z,24.15
2023-02-13T10:30:26.526Z,24.02
2023-02-13T10:33:20.872Z,23.13
2023-02-13T10:36:03.857Z,22.52
2023-02-13T10:38:36.003Z,24.38
2023-02-13T10:41:36.278Z,23.30
2023-02-13T10:44:42.735Z,24.70
2023-02-13T10:47:24.456Z,22.98
2023-02-13T10:50:40.145Z,24.23
2023-02-13T10:53:24.991Z,23.80
2023-02-13T10:56:03.761Z,24.77
2023-02-13T10:59:15.949Z,23.27
2023-02-13T11:02:02.729Z,22.73
2023-02-13T11:04:30.308Z,24.02
2023-02-13T11:07:04.399Z,24.13
2023-02-13T11:09:39.002Z,19.60
2023-02-13T11:12:31.918Z,22.23
2023-02-13T11:15:08.864Z,22.88
2023-02-13T11:17:40.370Z,22.58
2023-02-13T11:20:27.810Z,23.48
2023-02-13T11:22:56.100Z,24.17
2023-02-13T11:25:32.025Z,24.42
2023-02-13T11:28:17.985Z,24.65
2023-02-13T11:30:44.988Z,22.42
2023-02-13T11:33:17.756Z,22.67
2023-02-13T11:35:46.231Z,22.35
2023-02-13T11:38:15.976Z,22.70
2023-02-13T11:40:47.944Z,23.60
2023-02-13T11:43:29.325Z,24.92
2023-02-13T11:46:22.349Z,23.10
2023-02-13T11:49:07.925Z,24.73
2023-02-13T11:51:47.373Z,26.30
2023-02-13T11:55:00.265Z,25.35
2023-02-13T11:57:34.196Z,26.50
2023-02-13T12:00:28.933Z,25.52
2023-02-13T12:02:55.836Z,26.23
2023-02-13T12:05:28.453Z,26.98
2023-02-13T12:08:02.180Z,27.83
2023-02-13T12:10:33.835Z,28.58
2023-02-13T12:13:13.988Z,27.30
2023-02-13T12:15:41.848Z,27.27
2023-02-13T12:18:40.159Z,27.70
2023-02-13T12:21:56.256Z,26.35
2023-02-13T12:24:44.249Z,26.02
2023-02-13T12:27:26.267Z,26.33
2023-02-13T12:30:14.976Z,26.90
2023-02-13T12:33:16.787Z,28.38
2023-02-13T12:35:55.452Z,27.38
2023-02-13T12:38:51.516Z,29.13
2023-02-13T12:41:44.489Z,28.60
2023-02-13T12:44:52.858Z,26.92
2023-02-13T12:47:31.818Z,28.10
2023-02-13T12:50:39.811Z,27.60
2023-02-13T12:53:24.862Z,27.85
2023-02-13T12:56:09.057Z,25.95
2023-02-13T12:58:51.375Z,26.77
2023-02-13T13:01:46.542Z,26.08
2023-02-13T13:04:50.949Z,18.10
2023-02-13T13:08:04.557Z,24.55
2023-02-13T13:11:11.042Z,25.13
2023-02-13T13:13:54.936Z,23.35
2023-02-13T13:17:29.576Z,24.85
2023-02-13T13:20:14.483Z,24.25
2023-02-13T13:22:53.979Z,21.60
2023-02-13T13:25:30.984Z,24.25
2023-02-13T13:28:27.812Z,23.45
2023-02-13T13:30:55.727Z,24.45
2023-02-13T13:33:26.388Z,25.35
2023-02-13T13:36:18.830Z,24.75
2023-02-13T13:39:22.892Z,26.15
2023-02-13T13:42:11.925Z,25.77
2023-02-13T13:44:50.443Z,26.65
2023-02-13T13:47:35.412Z,24.90
2023-02-13T13:50:06.220Z,24.88
2023-02-13T13:52:40.342Z,25.77
2023-02-13T13:55:48.853Z,22.57
2023-02-13T13:58:44.124Z,26.02
2023-02-13T14:01:31.184Z,25.27
2023-02-13T14:04:32.879Z,25.27
2023-02-13T14:06:59.607Z,25.90
2023-02-13T14:09:43.852Z,27.50
2023-02-13T14:12:50.349Z,25.60
2023-02-13T14:15:39.018Z,24.55
2023-02-13T14:18:08.246Z,24.38
2023-02-13T14:20:43.090Z,24.88
2023-02-13T14:23:53.513Z,26.38
2023-02-13T14:26:32.090Z,26.60
2023-02-13T14:29:16.839Z,27.90
2023-02-13T14:32:01.223Z,27.77
2023-02-13T14:34:38.664Z,26.38
2023-02-13T14:37:13.141Z,26.50
2023-02-13T14:39:42.365Z,25.85
2023-02-13T14:42:30.283Z,26.92
2023-02-13T14:45:00.652Z,26.65
2023-02-13T14:47:32.847Z,28.00
2023-02-13T14:50:03.892Z,27.15
2023-02-13T14:52:40.329Z,27.10
2023-02-13T14:55:45.881Z,27.92
2023-02-13T14:58:28.214Z,25.23
2023-02-13T15:01:06.149Z,24.88
2023-02-13T15:03:38.319Z,24.83
2023-02-13T15:06:14.905Z,24.95
2023-02-13T15:08:49.696Z,25.70
2023-02-13T15:11:43.171Z,26.60
2023-02-13T15:14:35.643Z,26.92
2023-02-13T15:17:24.174Z,27.27
2023-02-13T15:20:05.122Z,26.23
2023-02-13T15:22:36.374Z,26.67
2023-02-13T15:25:04.493Z,25.38
2023-02-13T15:27:39.205Z,26.63
2023-02-13T15:30:22.525Z,26.02
2023-02-13T15:32:59.726Z,25.92
2023-02-13T15:35:38.935Z,28.80
2023-02-13T15:38:39.273Z,28.70
2023-02-13T15:41:24.409Z,26.95
2023-02-13T15:43:56.600Z,28.45
2023-02-13T15:46:33.927Z,28.10
2023-02-13T15:49:07.402Z,27.50
2023-02-13T15:51:35.292Z,27.20
2023-02-13T15:54:07.326Z,27.00
2023-02-13T15:56:35.229Z,27.55
2023-02-13T15:59:03.889Z,26.60
2023-02-13T16:01:32.311Z,29.33
2023-02-13T16:04:06.817Z,29.38
2023-02-13T16:06:35.078Z,27.58
2023-02-13T16:09:04.586Z,28.52
2023-02-13T16:11:44.799Z,28.10
2023-02-13T16:14:21.742Z,28.52
2023-02-13T16:17:18.057Z,27.83
2023-02-13T16:19:50.889Z,26.83
2023-02-13T16:22:38.142Z,27.45
2023-02-13T16:25:16.767Z,28.15
2023-02-13T16:28:18.781Z,27.42
2023-02-13T16:30:51.580Z,27.35
2023-02-13T16:33:36.361Z,25.52
2023-02-13T16:36:09.443Z,28.35
2023-02-13T16:38:46.487Z,29.40
2023-02-13T16:41:19.376Z,27.13
2023-02-13T16:43:53.967Z,27.60
2023-02-13T16:46:26.949Z,29.00
2023-02-13T16:48:56.893Z,27.23
2023-02-13T16:51:42.825Z,28.83
2023-02-13T16:54:12.432Z,28.80
2023-02-13T16:56:49.933Z,29.60
2023-02-13T16:59:42.064Z,30.33
2023-02-13T17:02:12.970Z,28.65
2023-02-13T17:04:39.949Z,32.03
2023-02-13T17:07:14.048Z,31.73
2023-02-13T17:09:40.982Z,31.23
2023-02-13T17:12:18.254Z,32.42
2023-02-13T17:14:45.450Z,30.38
2023-02-13T17:17:15.957Z,30.42
2023-02-13T17:19:43.052Z,29.80
2023-02-13T17:22:40.170Z,31.70
2023-02-13T17:25:17.758Z,30.00
2023-02-13T17:27:45.285Z,30.30
2023-02-13T17:30:24.951Z,29.95
2023-02-13T17:32:59.569Z,29.88
2023-02-13T17:35:26.787Z,29.65
2023-02-13T17:37:54.024Z,29.60
2023-02-13T17:40:29.889Z,29.73
2023-02-13T17:42:58.571Z,28.67
2023-02-13T17:45:29.043Z,28.40
2023-02-13T17:47:57.964Z,28.67
2023-02-13T17:50:27.594Z,29.70
2023-02-13T17:52:55.076Z,29.13
2023-02-13T17:55:29.140Z,28.60
2023-02-13T17:57:57.818Z,28.50
2023-02-13T18:00:29.280Z,30.35
2023-02-13T18:02:59.501Z,29.92
2023-02-13T18:05:28.698Z,30.70
2023-02-13T18:07:56.096Z,28.80
2023-02-13T18:10:29.331Z,29.58
2023-02-13T18:13:04.069Z,29.70
2023-02-13T18:15:40.267Z,30.30
2023-02-13T18:18:07.914Z,30.27
2023-02-13T18:20:35.011Z,30.10
2023-02-13T18:23:02.036Z,30.50
2023-02-13T18:25:29.829Z,30.17
2023-02-13T18:27:56.642Z,30.13
2023-02-13T18:30:23.799Z,29.77
2023-02-13T18:32:56.162Z,31.20
2023-02-13T18:35:23.458Z,31.00
2023-02-13T18:37:51.230Z,30.88
2023-02-13T18:40:18.519Z,32.28
2023-02-13T18:42:45.436Z,33.00
2023-02-13T18:45:12.676Z,29.77
2023-02-13T18:47:39.531Z,31.00
2023-02-13T18:50:07.677Z,31.95
2023-02-13T18:52:35.327Z,31.88
2023-02-13T18:55:02.743Z,28.98
2023-02-13T18:57:29.672Z,31.60
2023-02-13T18:59:56.603Z,31.10
2023-02-13T19:02:23.800Z,32.03
2023-02-13T19:04:50.829Z,29.35
2023-02-13T19:07:17.628Z,32.28
2023-02-13T19:09:44.663Z,34.40
2023-02-13T19:12:11.738Z,33.20
2023-02-13T19:14:39.865Z,32.92
2023-02-13T19:17:08.658Z,34.60
2023-02-13T19:19:35.544Z,30.80
2023-02-13T19:22:03.521Z,30.23
2023-02-13T19:24:30.616Z,30.58
2023-02-13T19:26:57.391Z,31.33
2023-02-13T19:29:24.313Z,32.38
2023-02-13T19:31:51.117Z,35.15
2023-02-13T19:34:18.242Z,34.47
2023-02-13T19:36:45.035Z,33.70
2023-02-13T19:39:12.032Z,33.72
2023-02-13T19:41:41.069Z,34.38
2023-02-13T19:44:09.347Z,33.60
2023-02-13T19:46:38.254Z,34.83
2023-02-13T19:49:06.308Z,34.92
2023-02-13T19:51:35.070Z,40.35
2023-02-13T19:54:05.895Z,37.53
2023-02-13T19:56:36.227Z,37.63
2023-02-13T19:59:04.349Z,40.42
2023-02-13T20:01:31.233Z,38.05
2023-02-13T20:03:58.585Z,39.53
2023-02-13T20:06:35.829Z,40.38
2023-02-13T20:09:10.441Z,42.72
2023-02-13T20:11:37.408Z,40.08
2023-02-13T20:14:05.909Z,40.90
2023-02-13T20:16:35.576Z,38.35
2023-02-13T20:19:07.160Z,41.13
2023-02-13T20:21:35.408Z,38.05
2023-02-13T20:24:03.306Z,38.25
2023-02-13T20:26:30.441Z,38.47
2023-02-13T20:28:59.611Z,42.63
2023-02-13T20:31:31.234Z,40.50
2023-02-13T20:33:58.672Z,39.00
2023-02-13T20:36:29.268Z,36.05
2023-02-13T20:38:59.798Z,40.97
2023-02-13T20:41:30.435Z,40.97
2023-02-13T20:44:04.645Z,35.58
2023-02-13T20:46:38.208Z,39.72
2023-02-13T20:49:05.791Z,37.75
2023-02-13T20:51:32.764Z,38.22
2023-02-13T20:54:00.486Z,36.67
2023-02-13T20:56:28.564Z,38.67
2023-02-13T20:59:00.635Z,39.50
2023-02-13T21:01:35.506Z,40.80
2023-02-13T21:04:04.052Z,39.78
2023-02-13T21:06:37.142Z,39.42
2023-02-13T21:09:08.215Z,40.25
2023-02-13T21:11:39.043Z,43.42
2023-02-13T21:14:07.148Z,47.75
2023-02-13T21:16:39.941Z,42.25
2023-02-13T21:19:17.858Z,42.40
2023-02-13T21:21:47.399Z,42.65
2023-02-13T21:24:24.540Z,43.30
2023-02-13T21:26:57.976Z,40.50
2023-02-13T21:29:25.969Z,39.35
2023-02-13T21:31:53.574Z,43.22
2023-02-13T21:34:22.922Z,47.78
2023-02-13T21:36:49.939Z,46.22
2023-02-13T21:39:16.957Z,45.83
2023-02-13T21:41:45.472Z,54.15
2023-02-13T21:44:17.025Z,52.40
2023-02-13T21:46:45.533Z,60.35
2023-02-13T21:49:16.560Z,49.03
2023-02-13T21:51:43.915Z,45.58
2023-02-13T21:54:11.777Z,43.67
2023-02-13T21:56:40.767Z,43.47
2023-02-13T21:59:08.304Z,40.05
2023-02-13T22:01:38.751Z,43.22
2023-02-13T22:04:08.752Z,42.33
2023-02-13T22:06:39.177Z,42.88
2023-02-13T22:09:10.294Z,39.67
2023-02-13T22:11:38.511Z,38.88
2023-02-13T22:14:08.629Z,42.25
2023-02-13T22:16:38.831Z,42.58
2023-02-13T22:19:07.432Z,42.42
2023-02-13T22:21:35.705Z,40.45
2023-02-13T22:24:03.491Z,45.67
2023-02-13T22:26:39.366Z,43.40
2023-02-13T22:29:11.513Z,45.67
2023-02-13T22:31:39.185Z,45.95
2023-02-13T22:34:07.077Z,45.85
2023-02-13T22:36:39.202Z,43.15
2023-02-13T22:39:08.267Z,44.55
2023-02-13T22:41:35.162Z,40.10
2023-02-13T22:44:01.979Z,38.38
2023-02-13T22:46:31.843Z,43.90
2023-02-13T22:48:59.783Z,43.65
2023-02-13T22:51:31.864Z,43.03
2023-02-13T22:54:00.099Z,41.38
2023-02-13T22:56:29.729Z,42.90
2023-02-13T22:58:57.280Z,45.38
2023-02-13T23:01:27.060Z,40.30
2023-02-13T23:03:55.213Z,41.95
2023-02-13T23:06:22.590Z,40.72
2023-02-13T23:08:52.889Z,43.75
2023-02-13T23:11:41.670Z,38.65
2023-02-13T23:14:10.180Z,42.45
2023-02-13T23:16:58.853Z,48.85
2023-02-13T23:19:27.687Z,45.85
2023-02-13T23:21:54.593Z,47.65
2023-02-13T23:24:21.714Z,50.60
2023-02-13T23:26:48.548Z,43.75
2023-02-13T23:29:15.389Z,44.45
2023-02-13T23:31:42.362Z,44.42
2023-02-13T23:34:09.685Z,46.13
2023-02-13T23:36:36.669Z,40.72
2023-02-13T23:39:03.596Z,44.85
2023-02-13T23:41:31.102Z,47.83
2023-02-13T23:43:57.882Z,42.10
2023-02-13T23:46:24.742Z,42.65
2023-02-13T23:48:51.630Z,44.72
2023-02-13T23:51:18.666Z,42.33
2023-02-13T23:53:45.822Z,46.38
2023-02-13T23:56:12.605Z,45.28
2023-02-13T23:58:39.373Z,45.25
